Time;durP1;ratioP1;P1;durP2;ratioP2;P2;SDS_P1;SDS_P2;PMS_P1;PMS_P2;Temp;Humidity;BMP_temperature;BMP_pressure;BME280_temperature;BME280_humidity;BME280_pressure;Samples;Min_cycle;Max_cycle;Signal;HPM_P1;HPM_P2
2021/01/11 00:01:08;;;;;;;19.02;11.90;;;6.40;99.90;;;;;;4933779;29;20066;-87
2021/01/11 00:03:34;;;;;;;18.30;12.52;;;6.40;99.90;;;;;;4941570;29;20119;-89
2021/01/11 00:05:59;;;;;;;23.77;12.95;;;6.50;99.90;;;;;;4923450;29;20107;-87
2021/01/11 00:08:25;;;;;;;21.85;13.32;;;6.40;99.90;;;;;;4941457;29;20058;-88
2021/01/11 00:10:51;;;;;;;22.45;12.32;;;6.40;99.90;;;;;;4928675;29;20039;-88
2021/01/11 00:13:17;;;;;;;23.25;13.00;;;6.40;99.90;;;;;;4932280;29;20032;-88
2021/01/11 00:15:45;;;;;;;24.35;12.35;;;6.40;99.90;;;;;;4940604;29;20036;-88
2021/01/11 00:18:11;;;;;;;19.35;12.65;;;6.30;99.90;;;;;;4924006;29;20027;-87
2021/01/11 00:20:39;;;;;;;20.48;13.20;;;6.30;99.90;;;;;;4940213;29;20442;-88
2021/01/11 00:23:05;;;;;;;19.73;11.52;;;6.30;99.90;;;;;;4907275;29;20055;-87
2021/01/11 00:25:30;;;;;;;16.13;9.20;;;6.30;99.90;;;;;;4922433;29;20062;-86
2021/01/11 00:28:00;;;;;;;15.68;9.15;;;6.30;99.90;;;;;;4922842;29;20028;-86
2021/01/11 00:30:26;;;;;;;16.23;9.15;;;6.30;99.90;;;;;;4922884;29;20019;-89
2021/01/11 00:32:54;;;;;;;11.88;8.65;;;6.30;99.90;;;;;;4922368;29;20363;-88
2021/01/11 00:35:20;;;;;;;14.05;9.80;;;6.30;99.90;;;;;;4922766;29;20084;-88
2021/01/11 00:37:45;;;;;;;15.88;9.57;;;6.30;99.90;;;;;;4923249;29;20023;-88
2021/01/11 00:40:11;;;;;;;17.23;9.77;;;6.30;99.90;;;;;;4922808;29;20043;-88
2021/01/11 00:42:37;;;;;;;20.55;11.07;;;6.30;99.90;;;;;;4941518;29;20131;-88
2021/01/11 00:45:06;;;;;;;16.33;9.98;;;6.30;99.90;;;;;;4943181;29;20066;-88
2021/01/11 00:47:36;;;;;;;21.10;11.32;;;6.40;99.90;;;;;;4930625;29;20027;-89
2021/01/11 00:50:04;;;;;;;18.02;11.63;;;6.30;99.90;;;;;;4929300;29;20130;-88
2021/01/11 00:52:29;;;;;;;19.85;11.60;;;6.30;99.90;;;;;;4928227;29;20032;-87
2021/01/11 00:55:00;;;;;;;22.98;11.88;;;6.30;99.90;;;;;;4938404;29;20354;-88
2021/01/11 00:57:28;;;;;;;20.45;12.05;;;6.20;99.90;;;;;;4922641;29;20056;-88
2021/01/11 00:59:56;;;;;;;18.60;12.13;;;6.20;99.90;;;;;;4938739;29;20044;-88
2021/01/11 01:02:21;;;;;;;22.20;13.13;;;6.10;99.90;;;;;;4922359;29;20032;-89
2021/01/11 01:04:50;;;;;;;18.83;12.45;;;6.20;99.90;;;;;;4938078;29;20370;-89
2021/01/11 01:07:16;;;;;;;24.45;13.98;;;6.20;99.90;;;;;;4922513;29;20032;-89
2021/01/11 01:09:41;;;;;;;23.55;13.48;;;6.20;99.90;;;;;;4938156;29;20051;-88
2021/01/11 01:12:07;;;;;;;21.60;14.43;;;6.10;99.90;;;;;;4922539;29;20036;-88
2021/01/11 01:14:34;;;;;;;21.25;14.93;;;6.10;99.90;;;;;;4938108;29;20035;-89
2021/01/11 01:17:02;;;;;;;26.52;14.50;;;6.10;99.90;;;;;;4922474;29;20035;-89
2021/01/11 01:19:27;;;;;;;20.52;13.75;;;6.10;99.90;;;;;;4922077;29;20200;-89
2021/01/11 01:21:53;;;;;;;26.13;15.18;;;6.10;99.90;;;;;;4937995;29;20051;-90
2021/01/11 01:24:18;;;;;;;27.70;16.30;;;6.10;99.90;;;;;;4922227;29;20055;-88
2021/01/11 01:26:44;;;;;;;29.63;14.50;;;6.00;99.90;;;;;;4906392;29;20060;-88
2021/01/11 01:29:10;;;;;;;25.23;14.77;;;6.10;99.90;;;;;;4922826;29;20043;-88
2021/01/11 01:31:36;;;;;;;28.50;15.02;;;6.10;99.90;;;;;;4922913;29;20083;-88
2021/01/11 01:34:01;;;;;;;24.92;14.48;;;6.10;99.90;;;;;;4922835;29;20032;-87
2021/01/11 01:36:27;;;;;;;25.33;14.73;;;6.20;99.90;;;;;;4923059;29;20110;-87
2021/01/11 01:38:53;;;;;;;20.30;13.93;;;6.20;99.90;;;;;;4922953;29;20139;-88
2021/01/11 01:41:19;;;;;;;26.45;13.02;;;6.20;99.90;;;;;;4938668;29;20031;-88
2021/01/11 01:43:44;;;;;;;20.92;12.38;;;6.20;99.90;;;;;;4922527;29;20130;-88
2021/01/11 01:46:15;;;;;;;22.73;11.45;;;6.20;99.90;;;;;;4921435;29;20028;-87
2021/01/11 01:48:41;;;;;;;19.52;11.00;;;6.20;99.90;;;;;;4921051;29;20062;-88
2021/01/11 01:51:07;;;;;;;15.63;9.85;;;6.20;99.90;;;;;;4921641;29;20055;-88
2021/01/11 01:53:33;;;;;;;19.98;9.55;;;6.20;99.90;;;;;;4921333;29;20468;-87
2021/01/11 01:55:59;;;;;;;18.17;9.45;;;6.30;99.90;;;;;;4921729;29;20497;-87
2021/01/11 01:58:26;;;;;;;18.85;9.07;;;6.30;99.90;;;;;;4906615;29;20031;-87
2021/01/11 02:00:51;;;;;;;18.02;8.77;;;6.30;99.90;;;;;;4921914;29;20095;-87
2021/01/11 02:03:17;;;;;;;19.20;7.35;;;6.30;99.90;;;;;;4922272;29;20032;-87
2021/01/11 02:05:45;;;;;;;16.20;8.05;;;6.30;99.90;;;;;;4921640;29;20091;-87
2021/01/11 02:08:33;;;;;;;17.77;8.07;;;6.30;99.90;;;;;;4922163;29;20099;-87
2021/01/11 02:11:24;;;;;;;15.50;7.65;;;6.30;99.90;;;;;;4939919;29;20023;-87
2021/01/11 02:14:16;;;;;;;12.27;6.40;;;6.30;99.90;;;;;;4922417;29;20027;-87
2021/01/11 02:17:00;;;;;;;16.05;6.60;;;6.30;99.90;;;;;;4941554;29;20030;-87
2021/01/11 02:20:06;;;;;;;16.17;6.05;;;6.30;99.90;;;;;;4929676;29;20035;-87
2021/01/11 02:23:03;;;;;;;13.63;6.25;;;6.30;99.90;;;;;;4935544;29;20028;-87
2021/01/11 02:25:34;;;;;;;14.43;6.55;;;6.30;99.90;;;;;;4928481;29;20378;-92
2021/01/11 02:28:04;;;;;;;15.20;5.63;;;6.40;99.90;;;;;;4936983;29;20047;-88
2021/01/11 02:30:33;;;;;;;23.95;6.60;;;6.40;99.90;;;;;;4959243;29;20035;-94
2021/01/11 02:33:06;;;;;;;17.42;6.78;;;6.40;99.90;;;;;;4943225;29;20031;-88
2021/01/11 02:35:56;;;;;;;18.00;7.07;;;6.40;99.90;;;;;;4957871;29;20023;-91
2021/01/11 02:38:23;;;;;;;11.05;5.93;;;6.40;99.90;;;;;;4942398;29;20047;-87
2021/01/11 02:40:49;;;;;;;13.50;6.25;;;6.40;99.90;;;;;;4942529;29;20043;-89
2021/01/11 02:43:15;;;;;;;10.65;6.30;;;6.40;99.90;;;;;;4939610;29;20052;-87
2021/01/11 02:45:41;;;;;;;13.80;6.35;;;6.30;99.90;;;;;;4934507;29;20102;-88
2021/01/11 02:48:20;;;;;;;15.15;7.07;;;6.30;99.90;;;;;;4943365;29;20020;-88
2021/01/11 02:51:19;;;;;;;11.93;6.47;;;6.40;99.90;;;;;;4943402;29;20030;-86
2021/01/11 02:54:11;;;;;;;17.77;7.75;;;6.30;99.90;;;;;;4943279;29;20015;-87
2021/01/11 02:57:19;;;;;;;10.07;6.43;;;6.30;99.90;;;;;;4942905;29;20081;-90
2021/01/11 02:59:55;;;;;;;14.35;6.90;;;6.40;99.90;;;;;;4935194;29;20032;-87
2021/01/11 03:02:24;;;;;;;13.02;6.07;;;6.30;99.90;;;;;;4940914;29;20034;-87
2021/01/11 03:04:51;;;;;;;11.90;5.70;;;6.30;99.90;;;;;;4940832;29;20091;-88
2021/01/11 03:07:17;;;;;;;17.65;5.50;;;6.30;99.90;;;;;;4923080;29;20111;-89
2021/01/11 03:09:43;;;;;;;13.38;5.78;;;6.30;99.90;;;;;;4922869;29;20114;-88
2021/01/11 03:12:10;;;;;;;15.82;5.45;;;6.40;99.90;;;;;;4938987;29;20429;-87
2021/01/11 03:14:37;;;;;;;16.20;5.82;;;6.40;99.90;;;;;;4921403;29;20059;-89
2021/01/11 03:17:03;;;;;;;11.10;5.43;;;6.30;99.90;;;;;;4922514;29;20032;-88
2021/01/11 03:19:29;;;;;;;16.77;6.30;;;6.30;99.90;;;;;;4920728;29;20046;-88
2021/01/11 03:21:55;;;;;;;19.00;6.20;;;6.30;99.90;;;;;;4937558;29;20106;-88
2021/01/11 03:24:22;;;;;;;18.67;6.80;;;6.40;99.90;;;;;;4937790;29;20020;-87
2021/01/11 03:26:48;;;;;;;19.10;7.43;;;6.40;99.90;;;;;;4921153;29;20119;-88
2021/01/11 03:29:15;;;;;;;14.65;7.03;;;6.30;99.90;;;;;;4920657;29;20042;-87
2021/01/11 03:31:42;;;;;;;14.98;6.97;;;6.30;99.90;;;;;;4936538;29;20079;-87
2021/01/11 03:34:09;;;;;;;13.52;6.70;;;6.40;99.90;;;;;;4919990;29;20126;-87
2021/01/11 03:36:38;;;;;;;16.17;6.78;;;6.40;99.90;;;;;;4919692;29;20083;-88
2021/01/11 03:39:06;;;;;;;20.95;7.32;;;6.40;99.90;;;;;;4936563;29;20043;-86
2021/01/11 03:41:34;;;;;;;16.38;6.78;;;6.30;99.90;;;;;;4919171;29;20047;-88
2021/01/11 03:44:00;;;;;;;16.85;7.07;;;6.30;99.90;;;;;;4919420;29;20055;-88
2021/01/11 03:46:28;;;;;;;17.23;6.72;;;6.30;99.90;;;;;;4935625;29;20023;-87
2021/01/11 03:48:54;;;;;;;18.70;6.90;;;6.40;99.90;;;;;;4919202;29;20090;-87
2021/01/11 03:51:20;;;;;;;14.45;6.93;;;6.30;99.90;;;;;;4919887;29;20111;-87
2021/01/11 03:53:46;;;;;;;14.48;7.18;;;6.40;99.90;;;;;;4919092;29;20083;-88
2021/01/11 03:56:12;;;;;;;17.33;7.30;;;6.40;99.90;;;;;;4919095;29;20075;-88
2021/01/11 03:58:38;;;;;;;15.00;5.88;;;6.40;99.90;;;;;;4919438;29;20031;-90
2021/01/11 04:01:04;;;;;;;13.02;6.80;;;6.40;99.90;;;;;;4919599;29;20049;-88
2021/01/11 04:03:29;;;;;;;14.85;6.20;;;6.30;99.90;;;;;;4935453;29;20063;-87
2021/01/11 04:05:57;;;;;;;15.35;6.60;;;6.30;99.90;;;;;;4919384;29;20106;-88
2021/01/11 04:08:23;;;;;;;15.68;5.70;;;6.40;99.90;;;;;;4935340;29;20059;-88
2021/01/11 04:10:49;;;;;;;14.82;6.32;;;6.40;99.90;;;;;;4919473;29;20032;-88
2021/01/11 04:13:15;;;;;;;13.25;6.18;;;6.50;99.90;;;;;;4935711;29;20383;-88
2021/01/11 04:15:41;;;;;;;12.68;5.28;;;6.40;99.90;;;;;;4903605;29;20032;-89
2021/01/11 04:18:06;;;;;;;16.10;6.97;;;6.50;99.90;;;;;;4919467;29;20099;-87
2021/01/11 04:20:33;;;;;;;13.80;5.50;;;6.40;99.90;;;;;;4936510;29;20087;-88
2021/01/11 04:22:59;;;;;;;9.02;4.88;;;6.40;99.90;;;;;;4919528;29;20027;-87
2021/01/11 04:25:25;;;;;;;13.65;5.93;;;6.40;99.90;;;;;;4937240;29;20027;-89
2021/01/11 04:27:56;;;;;;;13.52;5.80;;;6.40;99.90;;;;;;4938481;29;20033;-88
2021/01/11 04:30:22;;;;;;;15.13;5.78;;;6.40;99.90;;;;;;4927188;29;20035;-87
2021/01/11 04:32:48;;;;;;;21.45;6.07;;;6.50;99.90;;;;;;4927970;29;20038;-88
2021/01/11 04:40:26;;;;;;;19.98;6.53;;;6.50;99.90;;;;;;5433488;23;20062;-87
2021/01/11 04:43:10;;;;;;;18.13;5.70;;;6.50;99.90;;;;;;4993086;28;20035;-88
2021/01/11 04:45:35;;;;;;;20.02;6.93;;;6.50;99.90;;;;;;4979873;28;20027;-86
2021/01/11 04:48:02;;;;;;;26.80;7.35;;;6.60;99.90;;;;;;4961331;28;20033;-87
2021/01/11 04:50:29;;;;;;;24.08;7.57;;;6.60;99.90;;;;;;4961077;28;20065;-87
2021/01/11 04:52:55;;;;;;;17.35;6.68;;;6.60;99.90;;;;;;4977750;28;20035;-86
2021/01/11 04:55:22;;;;;;;22.58;6.60;;;6.60;99.90;;;;;;4960306;28;20034;-86
2021/01/11 04:57:56;;;;;;;17.45;6.50;;;6.60;99.90;;;;;;4960224;28;20049;-86
2021/01/11 05:00:26;;;;;;;20.85;7.43;;;6.70;99.90;;;;;;4977279;28;20050;-85
2021/01/11 05:03:01;;;;;;;18.08;6.97;;;6.70;99.90;;;;;;4960079;28;20559;-86
2021/01/11 05:05:31;;;;;;;17.10;7.57;;;6.70;99.90;;;;;;4960062;28;20114;-86
2021/01/11 05:07:57;;;;;;;23.90;7.57;;;6.70;99.90;;;;;;4959601;28;20039;-86
2021/01/11 05:10:27;;;;;;;19.88;6.85;;;6.80;99.90;;;;;;4959651;28;20150;-85
2021/01/11 05:12:58;;;;;;;17.15;6.50;;;6.70;99.90;;;;;;4960475;28;20035;-86
2021/01/11 05:15:25;;;;;;;17.95;6.82;;;6.70;99.90;;;;;;4975995;28;20037;-86
2021/01/11 05:17:51;;;;;;;16.50;6.63;;;6.80;99.90;;;;;;4976886;28;20026;-86
2021/01/11 05:20:25;;;;;;;20.17;6.57;;;6.70;99.90;;;;;;4964411;28;20035;-87
2021/01/11 05:22:59;;;;;;;20.25;6.63;;;6.80;99.90;;;;;;4965710;28;20034;-86
2021/01/11 05:25:28;;;;;;;19.13;6.97;;;6.70;99.90;;;;;;4977072;28;20031;-87
2021/01/11 05:28:11;;;;;;;14.50;6.53;;;6.70;99.90;;;;;;4959593;28;20027;-88
2021/01/11 05:30:46;;;;;;;15.10;6.63;;;6.70;99.90;;;;;;4959624;28;20049;-87
2021/01/11 05:33:19;;;;;;;14.60;6.88;;;6.70;99.90;;;;;;4975519;28;20058;-87
2021/01/11 05:35:46;;;;;;;24.00;7.15;;;6.80;99.90;;;;;;4959577;28;20023;-87
2021/01/11 05:38:19;;;;;;;19.23;6.32;;;6.70;99.90;;;;;;4975457;28;20472;-87
2021/01/11 05:40:48;;;;;;;17.27;6.03;;;6.80;99.90;;;;;;4959232;28;20081;-88
2021/01/11 05:43:21;;;;;;;22.55;7.03;;;6.70;99.90;;;;;;4959419;28;20034;-86
2021/01/11 05:45:52;;;;;;;14.73;6.10;;;6.70;99.90;;;;;;4958876;28;20031;-87
2021/01/11 05:48:18;;;;;;;13.20;6.63;;;6.70;99.90;;;;;;4975725;28;20035;-87
2021/01/11 05:50:45;;;;;;;13.13;6.35;;;6.70;99.90;;;;;;4975255;28;20038;-87
2021/01/11 05:53:24;;;;;;;18.75;7.10;;;6.70;99.90;;;;;;4976372;28;20089;-87
2021/01/11 05:55:54;;;;;;;23.73;7.55;;;6.70;99.90;;;;;;4959725;28;20027;-86
2021/01/11 05:58:27;;;;;;;17.83;6.95;;;6.60;99.90;;;;;;4960559;28;20177;-88
2021/01/11 06:00:52;;;;;;;17.42;6.85;;;6.70;99.90;;;;;;4958869;28;20030;-86
2021/01/11 06:03:18;;;;;;;14.93;7.00;;;6.70;99.90;;;;;;4958922;28;20498;-85
2021/01/11 06:05:45;;;;;;;19.15;7.65;;;6.70;99.90;;;;;;4958815;28;20034;-86
2021/01/11 06:08:13;;;;;;;19.55;7.97;;;6.70;99.90;;;;;;4958586;28;20112;-86
2021/01/11 06:10:40;;;;;;;17.90;7.68;;;6.70;99.90;;;;;;4958539;28;20049;-86
2021/01/11 06:13:08;;;;;;;24.35;8.23;;;6.60;99.90;;;;;;4974986;28;20057;-86
2021/01/11 06:15:34;;;;;;;22.58;8.80;;;6.70;99.90;;;;;;4958814;28;20108;-85
2021/01/11 06:18:01;;;;;;;21.80;8.63;;;6.70;99.90;;;;;;4958836;28;20030;-85
2021/01/11 06:20:30;;;;;;;22.73;8.73;;;6.60;99.90;;;;;;4958434;28;20042;-87
2021/01/11 06:22:56;;;;;;;22.15;8.50;;;6.50;99.90;;;;;;4958574;28;20109;-87
2021/01/11 06:25:25;;;;;;;16.83;7.65;;;6.40;99.90;;;;;;4958238;28;20046;-87
2021/01/11 06:28:05;;;;;;;15.77;7.97;;;6.40;99.90;;;;;;4958597;28;20023;-87
2021/01/11 06:30:34;;;;;;;17.88;7.55;;;6.40;99.90;;;;;;4976114;28;20030;-86
2021/01/11 06:33:16;;;;;;;18.15;7.75;;;6.40;99.90;;;;;;4958733;28;20030;-86
2021/01/11 06:35:44;;;;;;;15.80;6.50;;;6.50;99.90;;;;;;4958584;28;20027;-86
2021/01/11 06:38:25;;;;;;;16.40;7.47;;;6.50;99.90;;;;;;4958688;28;20061;-87
2021/01/11 06:40:50;;;;;;;18.05;7.55;;;6.50;99.90;;;;;;4958205;28;20595;-86
2021/01/11 06:43:17;;;;;;;25.75;7.43;;;6.50;99.90;;;;;;4958485;28;20137;-86
2021/01/11 06:45:44;;;;;;;18.15;7.22;;;6.40;99.90;;;;;;4957959;28;20031;-86
2021/01/11 06:48:21;;;;;;;15.18;6.65;;;6.40;99.90;;;;;;4958260;28;20027;-86
2021/01/11 06:50:48;;;;;;;15.73;6.90;;;6.30;99.90;;;;;;4958400;28;20039;-89
2021/01/11 06:53:25;;;;;;;21.70;6.50;;;6.30;99.90;;;;;;4958150;28;20478;-87
2021/01/11 06:56:07;;;;;;;16.83;6.20;;;6.40;99.90;;;;;;4958765;28;20035;-87
2021/01/11 06:58:41;;;;;;;12.38;6.50;;;6.30;99.90;;;;;;4959617;28;20043;-87
2021/01/11 07:01:11;;;;;;;16.73;6.22;;;6.30;99.90;;;;;;4969793;28;20035;-86
2021/01/11 07:03:47;;;;;;;10.07;5.70;;;6.40;99.90;;;;;;4971509;28;20035;-86
2021/01/11 07:06:51;;;;;;;14.00;5.75;;;6.40;99.90;;;;;;4987186;28;20027;-86
2021/01/11 07:09:19;;;;;;;19.40;5.90;;;6.40;99.90;;;;;;4961825;28;20086;-86
2021/01/11 07:11:48;;;;;;;15.80;6.03;;;6.40;99.90;;;;;;4964984;28;20027;-87
2021/01/11 07:14:20;;;;;;;20.15;5.68;;;6.50;99.90;;;;;;4966270;28;20039;-86
2021/01/11 07:16:52;;;;;;;20.38;6.32;;;6.50;99.90;;;;;;4984633;28;20129;-86
2021/01/11 07:19:20;;;;;;;14.98;6.65;;;6.40;99.90;;;;;;4968997;28;20027;-86
2021/01/11 07:21:48;;;;;;;14.98;5.72;;;6.40;99.90;;;;;;4963303;28;20041;-86
2021/01/11 07:24:14;;;;;;;13.35;4.85;;;6.40;99.90;;;;;;4965661;28;20035;-85
2021/01/11 07:26:40;;;;;;;10.77;5.35;;;6.40;99.90;;;;;;4969545;28;20031;-86
2021/01/11 07:29:11;;;;;;;14.13;5.38;;;6.50;99.90;;;;;;4969068;28;20043;-87
2021/01/11 07:31:45;;;;;;;20.67;5.57;;;6.40;99.90;;;;;;4974195;28;20035;-88
2021/01/11 07:34:12;;;;;;;14.32;4.72;;;6.40;99.90;;;;;;4957204;28;20370;-87
2021/01/11 07:36:48;;;;;;;14.57;6.25;;;6.50;99.90;;;;;;4959260;28;20049;-83
2021/01/11 07:39:27;;;;;;;13.88;6.32;;;6.50;99.90;;;;;;4974477;28;20041;-82
2021/01/11 07:42:03;;;;;;;15.68;5.22;;;6.50;99.90;;;;;;4974926;28;20038;-82
2021/01/11 07:44:34;;;;;;;13.10;5.07;;;6.50;99.90;;;;;;4958514;28;20031;-86
2021/01/11 07:47:11;;;;;;;18.85;5.22;;;6.50;99.90;;;;;;4958151;28;20105;-88
2021/01/11 07:49:40;;;;;;;15.50;4.82;;;6.50;99.90;;;;;;4975652;28;20065;-85
2021/01/11 07:52:17;;;;;;;9.48;4.25;;;6.50;99.90;;;;;;4957217;28;20039;-84
2021/01/11 07:54:44;;;;;;;11.13;4.78;;;6.50;99.90;;;;;;4975010;28;20027;-86
2021/01/11 07:57:14;;;;;;;10.68;4.35;;;6.50;99.90;;;;;;4958239;28;20051;-88
2021/01/11 07:59:42;;;;;;;16.65;5.30;;;6.50;99.90;;;;;;4976213;28;20035;-89
2021/01/11 08:02:15;;;;;;;9.05;4.63;;;6.50;99.90;;;;;;4960205;28;20055;-88
2021/01/11 08:04:42;;;;;;;12.27;5.00;;;6.50;99.90;;;;;;4957904;28;20118;-88
2021/01/11 08:07:12;;;;;;;13.27;5.18;;;6.50;99.90;;;;;;4959085;28;20031;-88
2021/01/11 08:09:40;;;;;;;13.13;5.25;;;6.50;99.90;;;;;;4959532;28;20042;-89
2021/01/11 08:12:08;;;;;;;19.35;5.15;;;6.60;99.90;;;;;;4958973;28;20031;-86
2021/01/11 08:14:36;;;;;;;12.98;5.00;;;6.50;99.90;;;;;;4959052;28;20030;-89
2021/01/11 08:17:04;;;;;;;13.98;5.80;;;6.60;99.90;;;;;;4979107;28;20491;-89
2021/01/11 08:19:30;;;;;;;17.70;5.13;;;6.70;99.90;;;;;;4984418;28;20039;-88
2021/01/11 08:21:58;;;;;;;17.60;5.70;;;6.60;99.90;;;;;;4977207;28;20038;-87
2021/01/11 08:24:27;;;;;;;17.75;5.22;;;6.60;99.90;;;;;;4992242;28;20135;-88
2021/01/11 08:27:05;;;;;;;10.85;4.82;;;6.50;99.90;;;;;;4967972;28;20027;-87
2021/01/11 08:29:40;;;;;;;14.85;5.60;;;6.60;99.90;;;;;;4964523;28;20082;-86
2021/01/11 08:32:16;;;;;;;17.98;5.47;;;6.60;99.90;;;;;;4964033;28;20061;-89
2021/01/11 08:34:42;;;;;;;11.95;5.05;;;6.60;99.90;;;;;;4963903;28;20053;-88
2021/01/11 08:37:21;;;;;;;14.80;5.07;;;6.60;99.90;;;;;;4963260;28;20023;-88
2021/01/11 08:40:00;;;;;;;15.82;5.68;;;6.60;99.90;;;;;;4964055;28;20523;-89
2021/01/11 08:42:28;;;;;;;23.60;5.57;;;6.60;99.90;;;;;;4950621;28;20062;-89
2021/01/11 08:44:57;;;;;;;18.02;5.45;;;6.60;99.90;;;;;;4964160;28;20022;-89
2021/01/11 08:47:30;;;;;;;21.95;5.80;;;6.60;99.90;;;;;;4963814;28;20030;-89
2021/01/11 08:50:01;;;;;;;20.60;5.63;;;6.60;99.90;;;;;;4964885;28;20038;-89
2021/01/11 08:52:36;;;;;;;18.52;6.32;;;6.70;99.90;;;;;;4964630;28;20118;-90
2021/01/11 08:55:09;;;;;;;14.20;5.28;;;6.70;99.90;;;;;;4981819;28;20029;-89
2021/01/11 08:57:40;;;;;;;37.28;8.02;;;6.70;99.90;;;;;;4966077;28;20031;-89
2021/01/11 09:00:10;;;;;;;17.00;5.38;;;6.60;99.90;;;;;;4964444;28;20043;-89
2021/01/11 09:02:45;;;;;;;21.10;5.50;;;6.70;99.90;;;;;;4963702;28;20054;-89
2021/01/11 09:05:19;;;;;;;19.95;6.25;;;6.70;99.90;;;;;;4962487;28;20057;-88
2021/01/11 09:07:45;;;;;;;17.40;6.63;;;6.70;99.90;;;;;;4960613;28;20043;-89
2021/01/11 09:10:23;;;;;;;19.10;5.10;;;6.70;99.90;;;;;;4960964;28;20033;-89
2021/01/11 09:12:51;;;;;;;20.55;6.53;;;6.70;99.90;;;;;;4961050;28;20036;-89
2021/01/11 09:15:25;;;;;;;15.55;5.13;;;6.70;99.90;;;;;;4979127;28;20085;-89
2021/01/11 09:18:01;;;;;;;18.13;4.78;;;6.80;99.90;;;;;;4965427;28;20095;-89
2021/01/11 09:20:28;;;;;;;25.15;6.28;;;6.80;99.90;;;;;;4964976;28;20035;-87
2021/01/11 09:22:57;;;;;;;18.98;5.25;;;6.80;99.90;;;;;;4964530;28;20086;-88
2021/01/11 09:25:28;;;;;;;19.35;4.90;;;6.80;99.90;;;;;;4979813;28;20050;-90
2021/01/11 09:27:54;;;;;;;16.98;5.00;;;6.80;99.90;;;;;;4962258;28;20072;-85
2021/01/11 09:30:22;;;;;;;21.00;5.55;;;6.90;99.90;;;;;;4964492;28;20109;-87
2021/01/11 09:32:48;;;;;;;21.83;5.45;;;6.90;99.90;;;;;;4991029;28;20094;-89
2021/01/11 09:35:15;;;;;;;18.25;5.50;;;6.90;99.90;;;;;;4974986;28;20034;-87
2021/01/11 09:37:44;;;;;;;19.83;5.35;;;7.00;99.90;;;;;;4980865;28;20027;-87
2021/01/11 09:40:11;;;;;;;21.52;5.57;;;7.00;99.90;;;;;;4962340;28;20058;-87
2021/01/11 09:42:39;;;;;;;25.52;4.80;;;7.00;99.90;;;;;;4960648;28;20042;-87
2021/01/11 09:45:06;;;;;;;17.13;4.88;;;7.00;99.90;;;;;;4977907;28;20037;-87
2021/01/11 09:47:34;;;;;;;19.35;4.53;;;7.00;99.90;;;;;;4959920;28;20081;-87
2021/01/11 09:50:08;;;;;;;15.02;5.20;;;7.00;99.90;;;;;;4977577;28;20051;-88
2021/01/11 09:52:36;;;;;;;18.48;5.15;;;7.00;99.90;;;;;;4959822;28;20059;-87
2021/01/11 09:55:06;;;;;;;15.00;4.53;;;7.00;99.90;;;;;;4975886;28;20035;-87
2021/01/11 09:57:36;;;;;;;13.00;4.43;;;7.00;99.90;;;;;;4959126;28;20031;-87
2021/01/11 10:00:08;;;;;;;18.73;4.97;;;7.00;99.90;;;;;;4959533;28;20034;-88
2021/01/11 10:02:37;;;;;;;19.17;4.70;;;7.00;99.90;;;;;;4960128;28;20046;-88
2021/01/11 10:05:06;;;;;;;20.40;5.32;;;7.00;99.90;;;;;;4961933;28;20122;-89
2021/01/11 10:07:31;;;;;;;12.55;4.07;;;7.00;99.90;;;;;;4961295;28;20062;-88
2021/01/11 10:09:57;;;;;;;16.25;4.75;;;7.10;99.90;;;;;;4961457;28;20042;-86
2021/01/11 10:12:25;;;;;;;17.15;4.78;;;7.10;99.90;;;;;;4960512;28;20031;-90
2021/01/11 10:14:51;;;;;;;12.68;4.18;;;7.10;99.90;;;;;;4960240;28;20031;-86
2021/01/11 10:17:17;;;;;;;13.30;5.45;;;7.10;99.90;;;;;;4961192;28;20094;-88
2021/01/11 10:19:43;;;;;;;19.50;5.32;;;7.10;99.90;;;;;;4962502;28;20166;-87
2021/01/11 10:22:09;;;;;;;12.32;4.70;;;7.20;99.90;;;;;;4979836;28;20027;-88
2021/01/11 10:24:37;;;;;;;20.88;5.25;;;7.10;99.90;;;;;;4961247;28;20034;-86
2021/01/11 10:27:06;;;;;;;21.05;4.75;;;7.00;99.90;;;;;;4962130;28;20027;-87
2021/01/11 10:29:32;;;;;;;20.15;5.82;;;7.10;99.90;;;;;;4961090;28;20123;-87
2021/01/11 10:31:58;;;;;;;20.95;4.88;;;7.00;99.90;;;;;;4960936;28;20476;-87
2021/01/11 10:34:24;;;;;;;26.23;6.00;;;7.10;99.90;;;;;;4961440;28;20031;-86
2021/01/11 10:36:52;;;;;;;14.38;4.80;;;7.10;99.90;;;;;;4961968;28;20066;-87
2021/01/11 10:39:22;;;;;;;15.88;4.80;;;7.10;99.90;;;;;;4966556;28;20043;-89
2021/01/11 10:41:52;;;;;;;13.13;4.80;;;7.10;99.90;;;;;;4968089;28;20050;-89
2021/01/11 10:44:22;;;;;;;15.05;4.57;;;7.10;99.90;;;;;;4961960;28;20123;-89
2021/01/11 10:46:55;;;;;;;16.80;5.18;;;7.10;99.90;;;;;;4967735;28;20053;-89
2021/01/11 10:49:23;;;;;;;15.27;5.25;;;7.10;99.90;;;;;;4963653;28;20034;-89
2021/01/11 10:51:49;;;;;;;13.18;4.75;;;7.20;99.90;;;;;;4979471;28;20034;-89
2021/01/11 10:54:15;;;;;;;20.33;5.05;;;7.10;99.90;;;;;;4962477;28;20035;-89
2021/01/11 10:56:41;;;;;;;20.15;5.07;;;7.10;99.90;;;;;;4963556;28;20034;-88
2021/01/11 10:59:06;;;;;;;13.63;5.05;;;7.10;99.90;;;;;;4980962;28;20034;-88
2021/01/11 11:01:32;;;;;;;14.07;4.80;;;7.10;99.90;;;;;;4965045;28;20564;-90
2021/01/11 11:03:58;;;;;;;16.65;5.30;;;7.10;99.90;;;;;;4964119;28;20027;-90
2021/01/11 11:06:27;;;;;;;15.35;5.13;;;7.10;99.90;;;;;;4966250;28;20035;-88
2021/01/11 11:08:53;;;;;;;17.98;5.63;;;7.10;99.90;;;;;;4970443;28;20646;-91
2021/01/11 11:11:19;;;;;;;19.92;5.38;;;7.10;99.90;;;;;;4981988;28;20027;-90
2021/01/11 11:13:45;;;;;;;15.05;5.88;;;7.10;99.90;;;;;;4980735;28;20038;-89
2021/01/11 11:16:12;;;;;;;16.30;5.28;;;7.10;99.90;;;;;;4993599;28;20050;-89
2021/01/11 11:18:38;;;;;;;15.68;5.40;;;7.10;99.90;;;;;;4994956;28;20026;-91
2021/01/11 11:21:08;;;;;;;14.55;4.50;;;7.10;99.90;;;;;;4976165;28;20035;-87
2021/01/11 11:23:34;;;;;;;14.55;5.13;;;7.20;99.90;;;;;;4969190;28;20058;-89
2021/01/11 11:26:01;;;;;;;18.20;4.82;;;7.20;99.90;;;;;;4969151;28;20030;-87
2021/01/11 11:28:28;;;;;;;13.77;4.13;;;7.20;99.90;;;;;;4998201;28;20046;-88
2021/01/11 11:30:53;;;;;;;12.50;4.43;;;7.20;99.90;;;;;;4981501;28;20015;-88
2021/01/11 11:33:19;;;;;;;15.60;5.00;;;7.20;99.90;;;;;;4998103;28;20015;-87
2021/01/11 11:35:48;;;;;;;16.65;4.72;;;7.20;99.90;;;;;;4979841;28;20034;-88
2021/01/11 11:38:14;;;;;;;14.18;4.00;;;7.20;99.90;;;;;;4979437;28;20077;-88
2021/01/11 11:40:42;;;;;;;10.75;4.55;;;7.20;99.90;;;;;;4979366;28;20054;-90
2021/01/11 11:43:08;;;;;;;19.20;5.38;;;7.20;99.90;;;;;;4988771;28;20034;-89
2021/01/11 11:45:34;;;;;;;13.38;4.93;;;7.20;99.90;;;;;;4964163;28;20031;-89
2021/01/11 11:47:59;;;;;;;12.02;4.97;;;7.30;99.90;;;;;;4966013;28;20035;-89
2021/01/11 11:50:26;;;;;;;16.77;5.50;;;7.20;99.90;;;;;;4963120;28;20031;-88
2021/01/11 11:52:55;;;;;;;11.07;4.22;;;7.20;99.90;;;;;;4977241;28;20030;-87
2021/01/11 11:55:21;;;;;;;18.02;4.53;;;7.20;99.90;;;;;;4987868;28;20026;-87
2021/01/11 11:57:49;;;;;;;18.48;4.63;;;7.20;99.90;;;;;;5009318;28;20031;-88
2021/01/11 12:00:16;;;;;;;14.02;4.45;;;7.20;99.90;;;;;;5002626;28;20042;-88
2021/01/11 12:02:43;;;;;;;10.55;4.63;;;7.30;99.90;;;;;;4995459;28;20061;-88
2021/01/11 12:05:10;;;;;;;22.27;4.28;;;7.20;99.90;;;;;;5000593;28;20034;-88
2021/01/11 12:07:36;;;;;;;11.60;4.05;;;7.20;99.90;;;;;;4990768;28;20493;-88
2021/01/11 12:10:04;;;;;;;12.63;4.53;;;7.30;99.90;;;;;;4991900;28;20105;-89
2021/01/11 12:12:29;;;;;;;11.07;3.78;;;7.30;99.90;;;;;;4986640;28;20022;-88
2021/01/11 12:15:02;;;;;;;10.35;3.95;;;7.30;99.90;;;;;;5000504;28;20037;-86
2021/01/11 12:17:29;;;;;;;14.20;4.00;;;7.30;99.90;;;;;;4997329;28;20026;-87
2021/01/11 12:19:55;;;;;;;12.48;4.30;;;7.30;99.90;;;;;;4964713;28;20111;-88
2021/01/11 12:22:21;;;;;;;11.45;4.63;;;7.30;99.90;;;;;;4981190;28;20056;-89
2021/01/11 12:24:46;;;;;;;17.13;5.47;;;7.30;99.90;;;;;;4981487;28;20030;-88
2021/01/11 12:27:12;;;;;;;18.40;4.88;;;7.20;99.90;;;;;;4984002;28;20571;-87
2021/01/11 12:29:38;;;;;;;20.35;4.75;;;7.30;99.90;;;;;;5008316;28;20014;-87
2021/01/11 12:32:07;;;;;;;16.85;5.53;;;7.30;99.90;;;;;;5004187;28;20030;-90
2021/01/11 12:34:42;;;;;;;13.38;4.78;;;7.20;99.90;;;;;;5007466;28;20085;-88
2021/01/11 12:37:25;;;;;;;18.10;4.88;;;7.20;99.90;;;;;;4987274;28;20030;-89
2021/01/11 12:39:51;;;;;;;12.63;4.43;;;7.20;99.90;;;;;;4983918;28;20054;-87
2021/01/11 12:42:17;;;;;;;15.02;4.68;;;7.20;99.90;;;;;;4982038;28;20023;-88
2021/01/11 12:44:46;;;;;;;17.40;4.55;;;7.10;99.90;;;;;;4982423;28;20387;-91
2021/01/11 12:47:12;;;;;;;10.93;4.30;;;7.10;99.90;;;;;;4982567;28;20026;-89
2021/01/11 12:49:40;;;;;;;12.10;3.75;;;7.10;99.90;;;;;;4982590;28;20109;-87
2021/01/11 12:52:13;;;;;;;14.20;4.68;;;7.10;99.90;;;;;;4981996;28;20117;-87
2021/01/11 12:54:39;;;;;;;16.75;5.00;;;7.10;99.90;;;;;;4999843;28;20023;-88
2021/01/11 12:57:06;;;;;;;11.70;4.35;;;7.10;99.90;;;;;;4981078;28;20034;-88
2021/01/11 12:59:32;;;;;;;9.57;3.85;;;7.10;99.90;;;;;;4982435;28;20387;-87
2021/01/11 13:02:03;;;;;;;16.67;4.38;;;7.10;99.90;;;;;;4982212;28;20069;-87